Time;durP1;ratioP1;P1;durP2;ratioP2;P2;SDS_P1;SDS_P2;PMS_P1;PMS_P2;Temp;Humidity;BMP_temperature;BMP_pressure;BME280_temperature;BME280_humidity;BME280_pressure;Samples;Min_cycle;Max_cycle;Signal;HPM_P1;HPM_P2
2023/08/05 00:00:11;;;;;;;9.90;7.80;;;;;;;24.39;59.24;99501.37;79411;1296;3011718;-65
2023/08/05 00:02:39;;;;;;;10.90;8.20;;;;;;;24.38;58.98;99505.45;78306;1301;3054444;-67
2023/08/05 00:05:07;;;;;;;15.30;8.00;;;;;;;24.35;59.03;99503.92;79479;1301;3013045;-65
2023/08/05 00:07:33;;;;;;;11.00;7.70;;;;;;;24.34;59.04;99501.52;79494;1301;3011644;-66
2023/08/05 00:10:02;;;;;;;14.00;8.00;;;;;;;24.33;59.20;99502.43;78112;1301;3069591;-68
2023/08/05 00:12:28;;;;;;;11.10;7.60;;;;;;;24.31;59.17;99501.17;79378;1298;3013439;-63
2023/08/05 00:14:55;;;;;;;10.80;8.20;;;;;;;24.32;59.12;99504.62;79219;1296;3013653;-68
2023/08/05 00:17:23;;;;;;;8.50;7.60;;;;;;;24.29;59.49;99504.95;78106;1300;3028198;-65
2023/08/05 00:19:50;;;;;;;9.10;7.70;;;;;;;24.26;59.68;99504.23;79559;1296;3012646;-68
2023/08/05 00:22:17;;;;;;;9.20;7.20;;;;;;;24.27;59.37;99500.98;79257;1309;3011915;-68
2023/08/05 00:24:44;;;;;;;8.80;7.10;;;;;;;24.27;59.32;99505.95;77968;1302;3027290;-67
2023/08/05 00:27:11;;;;;;;9.70;7.20;;;;;;;24.25;59.53;99504.38;79562;1301;3018089;-66
2023/08/05 00:29:38;;;;;;;10.40;7.40;;;;;;;24.22;59.88;99505.98;79198;1301;3011889;-71
2023/08/05 00:32:06;;;;;;;8.20;7.10;;;;;;;24.18;60.02;99507.92;78239;1301;3026566;-66
2023/08/05 00:34:34;;;;;;;10.40;7.30;;;;;;;24.17;59.74;99505.59;79524;1301;3012819;-67
2023/08/05 00:37:00;;;;;;;9.20;7.40;;;;;;;24.16;59.77;99507.31;79290;1301;3011663;-68
2023/08/05 00:39:28;;;;;;;10.70;7.00;;;;;;;24.14;59.89;99506.29;78308;1301;3071054;-67
2023/08/05 00:41:55;;;;;;;8.40;7.20;;;;;;;24.12;60.01;99502.67;79498;1296;3013556;-68
2023/08/05 00:44:23;;;;;;;9.10;7.20;;;;;;;24.11;59.80;99502.45;79386;1296;3011648;-70
2023/08/05 00:46:52;;;;;;;9.60;8.20;;;;;;;24.10;59.81;99500.99;78287;1301;3053334;-68
2023/08/05 00:49:19;;;;;;;8.70;6.60;;;;;;;24.10;59.56;99504.99;79386;1301;3015064;-67
2023/08/05 00:51:46;;;;;;;7.60;6.80;;;;;;;24.11;59.61;99505.54;79487;1301;3013101;-66
2023/08/05 00:54:13;;;;;;;8.30;6.60;;;;;;;24.11;59.59;99504.09;78165;1301;3029831;-66
2023/08/05 00:56:40;;;;;;;11.30;6.90;;;;;;;24.10;59.74;99500.61;79372;1299;3019051;-67
2023/08/05 00:59:06;;;;;;;7.90;6.70;;;;;;;24.10;59.73;99504.34;79359;1298;3011155;-67
2023/08/05 01:01:34;;;;;;;8.20;6.60;;;;;;;24.10;59.66;99502.77;78255;1299;3026101;-65
2023/08/05 01:04:01;;;;;;;9.80;7.00;;;;;;;24.08;59.81;99498.82;79466;1298;3018569;-70
2023/08/05 01:06:29;;;;;;;8.30;6.10;;;;;;;24.04;60.02;99503.48;79337;1301;3011676;-64
2023/08/05 01:08:57;;;;;;;8.30;6.70;;;;;;;24.00;60.20;99503.70;78196;1301;3067892;-69
2023/08/05 01:11:23;;;;;;;7.50;6.30;;;;;;;23.97;60.34;99501.21;79372;1295;3013108;-64
2023/08/05 01:13:50;;;;;;;11.20;6.20;;;;;;;23.94;60.49;99498.36;79431;1301;3011593;-67
2023/08/05 01:16:18;;;;;;;7.60;6.70;;;;;;;23.90;60.70;99499.76;78113;1299;3026762;-64
2023/08/05 01:18:44;;;;;;;11.70;6.60;;;;;;;23.86;60.97;99503.46;79321;1298;3013680;-65
2023/08/05 01:21:19;;;;;;;9.40;7.10;;;;;;;23.81;61.13;99507.01;79425;1301;3011508;-68
2023/08/05 01:23:59;;;;;;;8.60;7.20;;;;;;;23.76;61.39;99507.17;78133;1302;3069332;-66
2023/08/05 01:26:27;;;;;;;8.60;6.80;;;;;;;23.71;61.48;99505.95;78091;1296;3052942;-66
2023/08/05 01:28:53;;;;;;;8.40;6.70;;;;;;;23.66;61.93;99509.28;79392;1298;3013077;-72
2023/08/05 01:31:20;;;;;;;8.10;6.10;;;;;;;23.62;62.05;99509.70;79400;1302;3011898;-71
2023/08/05 01:33:48;;;;;;;8.00;7.20;;;;;;;23.57;62.59;99513.36;78025;1301;3026736;-67
2023/08/05 01:36:20;;;;;;;8.20;7.00;;;;;;;23.50;63.34;99510.14;79268;1295;3013219;-66
2023/08/05 01:38:48;;;;;;;9.30;7.10;;;;;;;23.44;64.14;99513.02;78308;1301;3069047;-63
2023/08/05 01:41:15;;;;;;;10.10;6.40;;;;;;;23.36;64.55;99511.23;79437;1298;3018514;-65
2023/08/05 01:43:42;;;;;;;8.40;7.00;;;;;;;23.30;64.48;99508.46;79213;1299;3013280;-69
2023/08/05 01:46:10;;;;;;;10.60;7.70;;;;;;;23.28;64.63;99508.21;78193;1300;3026137;-69
2023/08/05 01:48:37;;;;;;;10.20;7.30;;;;;;;23.23;64.95;99512.68;79461;1301;3013064;-69
2023/08/05 01:51:03;;;;;;;10.60;7.70;;;;;;;23.21;65.03;99514.14;79431;1295;3013004;-68
2023/08/05 01:53:31;;;;;;;9.80;7.30;;;;;;;23.18;64.96;99506.62;78243;1300;3028365;-67
2023/08/05 01:55:58;;;;;;;9.90;6.90;;;;;;;23.15;64.99;99502.87;79205;1299;3019788;-69
2023/08/05 01:58:24;;;;;;;12.20;7.80;;;;;;;23.15;64.67;99506.86;79396;1301;3011192;-65
2023/08/05 02:00:52;;;;;;;8.30;7.20;;;;;;;23.16;64.56;99505.52;78221;1299;3025899;-69
2023/08/05 02:03:19;;;;;;;8.60;7.00;;;;;;;23.15;64.50;99507.70;79284;1299;3012846;-67
2023/08/05 02:05:46;;;;;;;8.50;6.60;;;;;;;23.14;64.63;99503.91;79450;1298;3011578;-69
2023/08/05 02:08:14;;;;;;;11.80;7.00;;;;;;;23.13;64.59;99507.55;78060;1301;3027612;-66
2023/08/05 02:10:41;;;;;;;9.50;6.60;;;;;;;23.14;64.10;99507.64;79367;1296;3012824;-65
2023/08/05 02:13:07;;;;;;;10.00;7.10;;;;;;;23.14;64.55;99516.55;79414;1298;3012123;-67
2023/08/05 02:15:35;;;;;;;10.80;6.70;;;;;;;23.10;65.28;99520.79;77951;1299;3025944;-69
2023/08/05 02:18:03;;;;;;;10.20;7.30;;;;;;;23.07;65.17;99519.12;79184;1301;3013712;-67
2023/08/05 02:20:30;;;;;;;8.10;7.10;;;;;;;23.05;65.33;99525.25;79429;1301;3011920;-62
2023/08/05 02:22:58;;;;;;;8.30;6.80;;;;;;;23.00;65.49;99528.08;78093;1296;3069518;-65
2023/08/05 02:25:24;;;;;;;11.80;6.80;;;;;;;22.96;65.54;99527.08;79448;1299;3015464;-62
2023/08/05 02:27:51;;;;;;;10.80;7.10;;;;;;;22.93;65.15;99527.44;79401;1298;3014015;-62
2023/08/05 02:30:19;;;;;;;7.70;6.90;;;;;;;22.90;65.34;99530.25;77994;1301;3024838;-69
2023/08/05 02:32:46;;;;;;;9.20;6.90;;;;;;;22.87;65.75;99527.09;79420;1296;3013564;-65
2023/08/05 02:35:13;;;;;;;9.60;7.00;;;;;;;22.84;65.64;99526.28;79231;1301;3011651;-67
2023/08/05 02:37:41;;;;;;;8.30;7.00;;;;;;;22.83;65.58;99526.45;78214;1301;3067806;-65
2023/08/05 02:40:08;;;;;;;9.60;7.40;;;;;;;22.81;65.25;99529.51;79433;1295;3013751;-66
2023/08/05 02:42:35;;;;;;;10.00;7.50;;;;;;;22.81;65.14;99531.89;79433;1296;3011635;-69
2023/08/05 02:45:03;;;;;;;13.30;6.70;;;;;;;22.81;65.42;99528.11;78202;1295;3053398;-68
2023/08/05 02:47:30;;;;;;;14.50;7.50;;;;;;;22.79;65.59;99528.64;79517;1295;3013398;-64
2023/08/05 02:49:57;;;;;;;12.50;7.60;;;;;;;22.78;65.91;99536.94;79581;1301;3011882;-63
2023/08/05 02:52:25;;;;;;;9.80;6.90;;;;;;;22.77;65.70;99539.52;78348;1295;3069336;-66
2023/08/05 02:54:52;;;;;;;10.80;7.40;;;;;;;22.76;65.45;99535.70;79280;1298;3013062;-64
2023/08/05 02:57:19;;;;;;;11.20;7.40;;;;;;;22.79;65.54;99540.77;79281;1295;3013256;-70
2023/08/05 02:59:46;;;;;;;11.50;6.90;;;;;;;22.80;65.48;99533.49;78428;1297;3028790;-69
2023/08/05 03:02:13;;;;;;;9.40;7.20;;;;;;;22.79;65.91;99534.87;79409;1301;3018460;-68
2023/08/05 03:04:39;;;;;;;8.90;7.90;;;;;;;22.78;66.13;99534.50;79585;1297;3011783;-69
2023/08/05 03:07:07;;;;;;;10.20;7.30;;;;;;;22.78;65.45;99534.83;78100;1295;3025862;-69
2023/08/05 03:09:33;;;;;;;13.20;7.30;;;;;;;22.80;65.69;99535.17;79495;1296;3013008;-64
2023/08/05 03:12:03;;;;;;;11.10;7.40;;;;;;;22.81;64.92;99535.77;79565;1296;3011692;-64
2023/08/05 03:14:31;;;;;;;11.40;6.90;;;;;;;22.83;64.49;99541.78;78217;1308;3053553;-71
2023/08/05 03:16:58;;;;;;;11.00;7.10;;;;;;;22.86;64.79;99536.59;79372;1297;3019001;-66
2023/08/05 03:19:24;;;;;;;8.80;7.30;;;;;;;22.88;64.23;99537.45;79565;1298;3013365;-67
2023/08/05 03:21:53;;;;;;;9.40;7.60;;;;;;;22.89;64.08;99539.33;78365;1299;3069847;-67
2023/08/05 03:24:20;;;;;;;9.80;7.30;;;;;;;22.90;64.14;99537.83;79436;1297;3014074;-66
2023/08/05 03:26:52;;;;;;;8.10;6.50;;;;;;;22.90;64.41;99538.70;78870;1294;3013067;-67
2023/08/05 03:29:18;;;;;;;8.40;7.40;;;;;;;22.92;64.69;99537.22;79448;1295;3018669;-66
2023/08/05 03:31:45;;;;;;;9.30;7.70;;;;;;;22.95;64.56;99541.70;79458;1296;3011803;-66
2023/08/05 03:34:14;;;;;;;13.40;7.60;;;;;;;22.99;64.40;99539.84;78182;1298;3029498;-68
2023/08/05 03:36:40;;;;;;;8.80;7.50;;;;;;;23.03;64.21;99541.73;79499;1301;3021210;-68
2023/08/05 03:39:08;;;;;;;16.20;8.30;;;;;;;23.08;64.09;99540.91;79429;1301;3012208;-66
2023/08/05 03:41:35;;;;;;;13.50;7.40;;;;;;;23.14;63.93;99541.58;78228;1294;3026583;-62
2023/08/05 03:44:02;;;;;;;13.40;7.80;;;;;;;23.16;63.83;99541.55;79448;1295;3013090;-67
2023/08/05 03:46:29;;;;;;;10.00;7.70;;;;;;;23.20;63.60;99546.10;79327;1296;3012862;-66
2023/08/05 03:48:57;;;;;;;10.20;7.80;;;;;;;23.26;63.22;99547.09;78170;1297;3026174;-65
2023/08/05 03:51:23;;;;;;;12.40;8.00;;;;;;;23.30;63.03;99544.91;79401;1295;3018673;-63
2023/08/05 03:53:50;;;;;;;10.50;8.20;;;;;;;23.35;62.86;99545.13;79358;1297;3011669;-66
2023/08/05 03:56:21;;;;;;;12.60;8.10;;;;;;;23.38;62.85;99544.61;78145;1298;3028294;-67
2023/08/05 03:58:51;;;;;;;13.20;7.70;;;;;;;23.41;62.76;99545.48;79291;1296;3011637;-63
2023/08/05 04:01:21;;;;;;;13.50;8.90;;;;;;;23.44;62.87;99546.20;78121;1295;3053911;-64
2023/08/05 04:03:51;;;;;;;18.70;8.60;;;;;;;23.47;63.09;99550.95;79363;1300;3011629;-64
2023/08/05 04:06:20;;;;;;;16.30;8.00;;;;;;;23.50;63.03;99550.89;78257;1297;3053089;-68
2023/08/05 04:08:53;;;;;;;8.80;8.00;;;;;;;23.54;63.07;99552.11;79534;1299;3013274;-67
2023/08/05 04:11:21;;;;;;;8.70;7.50;;;;;;;23.57;62.89;99547.58;78479;1295;3068999;-67
2023/08/05 04:13:51;;;;;;;12.50;8.00;;;;;;;23.60;62.28;99551.52;79267;1296;3013517;-65
2023/08/05 04:16:21;;;;;;;11.20;8.10;;;;;;;23.67;61.85;99554.40;78994;1298;3011947;-68
2023/08/05 04:18:49;;;;;;;10.50;7.90;;;;;;;23.70;61.90;99555.49;79356;1298;3012877;-69
2023/08/05 04:21:18;;;;;;;10.40;8.20;;;;;;;23.74;61.88;99561.77;78874;1296;3013178;-67
2023/08/05 04:23:46;;;;;;;10.40;8.30;;;;;;;23.76;62.01;99560.82;79385;1295;3018920;-70
2023/08/05 04:26:13;;;;;;;8.70;7.60;;;;;;;23.81;62.01;99562.83;79475;1298;3011593;-70
2023/08/05 04:28:41;;;;;;;10.60;8.60;;;;;;;23.85;62.21;99560.56;78158;1298;3068466;-63
2023/08/05 04:31:08;;;;;;;22.10;9.10;;;;;;;23.89;62.42;99560.23;79415;1295;3013001;-62
2023/08/05 04:33:34;;;;;;;10.20;9.00;;;;;;;23.93;62.31;99558.97;79572;1301;3012032;-66
2023/08/05 04:36:02;;;;;;;11.60;9.30;;;;;;;23.96;62.72;99558.04;78251;1295;3026346;-64
2023/08/05 04:38:29;;;;;;;15.90;8.40;;;;;;;23.99;62.73;99559.66;79354;1298;3018511;-63
2023/08/05 04:40:55;;;;;;;11.50;9.10;;;;;;;24.04;61.97;99554.12;79422;1298;3011533;-67
2023/08/05 04:43:23;;;;;;;10.70;9.00;;;;;;;24.09;61.83;99554.23;78334;1295;3028691;-67
2023/08/05 04:45:50;;;;;;;13.50;8.50;;;;;;;24.14;61.87;99556.51;79281;1299;3013615;-68
2023/08/05 04:48:17;;;;;;;13.50;9.00;;;;;;;24.16;62.29;99553.60;79635;1298;3011922;-64
2023/08/05 04:50:45;;;;;;;16.00;9.00;;;;;;;24.20;62.35;99549.89;78237;1295;3026562;-69
2023/08/05 04:53:13;;;;;;;12.10;9.30;;;;;;;24.24;62.04;99554.95;79358;1298;3015417;-65
2023/08/05 04:55:40;;;;;;;12.30;9.90;;;;;;;24.30;61.95;99552.31;79703;1298;3011497;-67
2023/08/05 04:58:08;;;;;;;12.70;9.30;;;;;;;24.36;61.70;99556.61;78295;1298;3069996;-71
2023/08/05 05:00:35;;;;;;;11.20;8.90;;;;;;;24.42;61.69;99556.66;79533;1295;3013999;-69
2023/08/05 05:03:01;;;;;;;12.50;9.10;;;;;;;24.47;61.68;99553.35;79547;1295;3011945;-69
2023/08/05 05:05:31;;;;;;;13.00;9.30;;;;;;;24.51;61.98;99554.16;76404;1296;3053207;-67
2023/08/05 05:07:57;;;;;;;11.90;9.70;;;;;;;24.54;62.27;99555.77;79766;1297;3014280;-64
2023/08/05 05:10:24;;;;;;;11.20;8.50;;;;;;;24.58;62.10;99554.44;79424;1298;3012662;-66
2023/08/05 05:12:52;;;;;;;14.50;8.80;;;;;;;24.64;62.03;99549.64;78377;1298;3068065;-68
2023/08/05 05:15:21;;;;;;;14.10;9.20;;;;;;;24.69;61.88;99550.96;79746;1298;3012702;-70
2023/08/05 05:17:50;;;;;;;13.80;8.90;;;;;;;24.76;61.51;99549.74;79560;1296;3011559;-67
2023/08/05 05:20:18;;;;;;;10.00;8.30;;;;;;;24.84;61.39;99547.98;78166;1295;3052671;-64
2023/08/05 05:22:45;;;;;;;13.30;8.90;;;;;;;24.88;61.28;99549.60;79433;1298;3012834;-65
2023/08/05 05:25:11;;;;;;;10.70;8.90;;;;;;;24.92;61.18;99547.71;79407;1298;3011949;-65
2023/08/05 05:27:39;;;;;;;12.50;9.70;;;;;;;24.99;61.07;99547.23;78321;1298;3026871;-68
2023/08/05 05:30:06;;;;;;;13.60;8.90;;;;;;;25.04;61.13;99549.29;79527;1296;3013485;-65
2023/08/05 05:32:33;;;;;;;12.90;8.80;;;;;;;25.11;61.04;99546.98;79459;1295;3012725;-65
2023/08/05 05:35:01;;;;;;;11.70;9.50;;;;;;;25.19;61.36;99545.05;78158;1296;3054320;-65
2023/08/05 05:37:27;;;;;;;15.00;8.80;;;;;;;25.26;61.25;99544.53;79557;1298;3011631;-65
2023/08/05 05:39:54;;;;;;;16.00;9.30;;;;;;;25.33;61.19;99542.26;79458;1298;3011644;-69
2023/08/05 05:42:22;;;;;;;13.10;8.70;;;;;;;25.39;61.12;99545.64;78414;1296;3028550;-66
2023/08/05 05:44:52;;;;;;;10.20;9.00;;;;;;;25.48;60.50;99547.31;79625;1295;3013371;-63
2023/08/05 05:47:21;;;;;;;14.00;9.10;;;;;;;25.57;59.91;99544.06;78924;1294;3011944;-68
2023/08/05 05:49:47;;;;;;;12.40;9.80;;;;;;;25.62;59.53;99543.79;79473;1295;3020508;-67
2023/08/05 05:52:16;;;;;;;12.40;9.60;;;;;;;25.66;59.95;99540.59;79533;1295;3011787;-66
2023/08/05 05:54:44;;;;;;;13.40;10.20;;;;;;;25.74;60.01;99537.64;78528;1295;3051089;-65
2023/08/05 05:57:11;;;;;;;11.90;9.10;;;;;;;25.82;60.05;99537.73;79395;1298;3013257;-65
2023/08/05 05:59:39;;;;;;;14.50;9.00;;;;;;;25.92;59.91;99534.72;79416;1298;3011737;-67
2023/08/05 06:02:07;;;;;;;12.30;9.50;;;;;;;26.00;59.69;99535.37;78228;1298;3056215;-63
2023/08/05 06:04:34;;;;;;;11.70;9.30;;;;;;;26.07;59.65;99532.47;79525;1296;3013290;-66
2023/08/05 06:07:02;;;;;;;12.80;9.80;;;;;;;26.15;59.39;99527.56;79626;1294;3011579;-65
2023/08/05 06:09:31;;;;;;;12.30;8.80;;;;;;;26.25;59.07;99530.02;78296;1295;3052857;-66
2023/08/05 06:11:58;;;;;;;14.80;9.90;;;;;;;26.36;58.51;99538.59;79576;1295;3013534;-63
2023/08/05 06:14:25;;;;;;;11.80;9.70;;;;;;;26.45;58.39;99540.16;79671;1296;3012169;-63
2023/08/05 06:16:53;;;;;;;13.10;10.10;;;;;;;26.53;58.44;99540.30;78390;1295;3056561;-67
2023/08/05 06:19:19;;;;;;;11.30;9.60;;;;;;;26.60;58.11;99534.92;79726;1295;3013002;-64
2023/08/05 06:21:46;;;;;;;15.40;10.20;;;;;;;26.67;58.16;99540.31;79951;1295;3011357;-66
2023/08/05 06:24:14;;;;;;;13.20;9.80;;;;;;;26.73;57.44;99542.59;78426;1298;3029111;-65
2023/08/05 06:26:41;;;;;;;13.20;10.10;;;;;;;26.82;57.46;99546.88;79373;1298;3013693;-68
2023/08/05 06:29:07;;;;;;;13.30;10.50;;;;;;;26.89;57.40;99544.77;79502;1297;3011854;-69
2023/08/05 06:31:35;;;;;;;18.80;10.00;;;;;;;26.99;56.74;99541.90;78341;1295;3028780;-64
2023/08/05 06:34:02;;;;;;;13.20;9.90;;;;;;;27.07;56.89;99533.30;79701;1294;3013247;-65
2023/08/05 06:36:28;;;;;;;11.40;9.60;;;;;;;27.13;56.44;99530.73;79416;1294;3011813;-65
2023/08/05 06:38:56;;;;;;;16.10;10.00;;;;;;;27.19;56.04;99530.41;78400;1301;3026820;-66
2023/08/05 06:41:23;;;;;;;12.80;9.30;;;;;;;27.24;55.93;99523.35;79597;1298;3013672;-64
2023/08/05 06:43:50;;;;;;;13.00;9.60;;;;;;;27.31;55.59;99522.84;79341;1294;3012865;-68
2023/08/05 06:46:19;;;;;;;12.40;9.70;;;;;;;27.38;55.21;99520.91;78241;1297;3025775;-68
2023/08/05 06:48:45;;;;;;;20.60;10.70;;;;;;;27.46;55.61;99517.20;79678;1295;3012974;-67
2023/08/05 06:51:12;;;;;;;17.40;9.90;;;;;;;27.56;55.35;99513.70;79508;1295;3011605;-65
2023/08/05 06:53:44;;;;;;;13.20;9.70;;;;;;;27.68;54.86;99510.73;78545;1293;3051682;-66
2023/08/05 06:56:11;;;;;;;11.90;9.50;;;;;;;27.77;54.11;99514.05;79516;1295;3013032;-64
2023/08/05 06:58:40;;;;;;;10.40;9.00;;;;;;;27.83;54.44;99515.39;78982;1294;3011570;-68
2023/08/05 07:01:06;;;;;;;16.40;9.70;;;;;;;27.92;54.07;99518.30;79612;1294;3018625;-69
2023/08/05 07:03:33;;;;;;;12.70;10.00;;;;;;;28.01;53.50;99516.73;79527;1295;3012879;-65
2023/08/05 07:06:00;;;;;;;11.70;9.00;;;;;;;28.11;53.31;99517.73;78447;1295;3026095;-63
2023/08/05 07:08:28;;;;;;;13.00;10.00;;;;;;;28.18;53.05;99518.17;79522;1297;3013516;-64
2023/08/05 07:10:55;;;;;;;11.60;8.80;;;;;;;28.21;52.60;99520.65;79724;1301;3012033;-65
2023/08/05 07:13:24;;;;;;;12.30;9.20;;;;;;;28.28;52.73;99519.48;78461;1296;3068761;-66
2023/08/05 07:15:57;;;;;;;11.30;8.60;;;;;;;28.37;52.62;99522.23;79435;1295;3012920;-66
2023/08/05 07:18:25;;;;;;;13.00;8.40;;;;;;;28.44;52.09;99518.98;78125;1295;3048715;-65
2023/08/05 07:20:52;;;;;;;10.30;9.00;;;;;;;28.49;52.04;99518.11;79403;1298;3013378;-67
2023/08/05 07:23:19;;;;;;;10.10;8.30;;;;;;;28.56;52.11;99521.52;79535;1295;3011680;-68
2023/08/05 07:25:47;;;;;;;11.50;8.10;;;;;;;28.64;51.88;99522.02;78146;1295;3026737;-64
2023/08/05 07:28:14;;;;;;;11.80;8.20;;;;;;;28.74;51.59;99520.36;79530;1295;3013269;-69
2023/08/05 07:30:40;;;;;;;10.10;8.40;;;;;;;28.80;51.21;99518.10;79549;1296;3011550;-71
2023/08/05 07:33:09;;;;;;;11.00;8.20;;;;;;;28.86;50.80;99518.33;78432;1296;3026715;-65
2023/08/05 07:35:36;;;;;;;11.20;7.60;;;;;;;28.92;49.82;99515.74;79593;1294;3013005;-64
2023/08/05 07:38:09;;;;;;;14.10;8.30;;;;;;;28.97;50.02;99513.14;79665;1295;3011692;-64
2023/08/05 07:40:40;;;;;;;12.70;7.30;;;;;;;29.04;50.04;99513.71;78179;1298;3052653;-75
2023/08/05 07:43:08;;;;;;;9.80;7.90;;;;;;;29.13;49.94;99510.10;79456;1298;3011734;-69
2023/08/05 07:45:36;;;;;;;9.00;7.70;;;;;;;29.23;49.31;99503.28;78478;1298;3050920;-63
2023/08/05 07:48:08;;;;;;;9.30;7.40;;;;;;;29.28;48.57;99503.71;79535;1295;3018893;-69
2023/08/05 07:50:36;;;;;;;15.20;7.90;;;;;;;29.34;48.59;99505.17;78367;1298;3052996;-69
2023/08/05 07:53:05;;;;;;;14.50;8.80;;;;;;;29.42;48.14;99505.68;79458;1301;3013808;-66
2023/08/05 07:55:33;;;;;;;15.30;7.50;;;;;;;29.48;48.33;99509.18;79446;1298;3012057;-67
2023/08/05 07:58:04;;;;;;;11.00;7.70;;;;;;;29.54;48.28;99502.66;78457;1296;3068623;-66
2023/08/05 08:00:31;;;;;;;19.30;8.40;;;;;;;29.58;47.95;99496.77;79579;1295;3012628;-68
2023/08/05 08:02:57;;;;;;;29.30;9.70;;;;;;;29.66;47.76;99493.48;79731;1295;3011489;-66
2023/08/05 08:05:26;;;;;;;16.80;8.70;;;;;;;29.71;47.14;99494.39;78279;1301;3053051;-66
2023/08/05 08:07:55;;;;;;;18.60;7.80;;;;;;;29.77;47.30;99490.98;79463;1295;3013077;-66
2023/08/05 08:10:24;;;;;;;9.90;6.60;;;;;;;29.86;46.94;99492.31;79148;1301;3011776;-69
2023/08/05 08:12:52;;;;;;;15.20;6.90;;;;;;;29.96;46.67;99491.30;79600;1295;3012832;-70
2023/08/05 08:15:18;;;;;;;15.60;7.30;;;;;;;30.04;46.38;99494.70;79495;1293;3011615;-66
2023/08/05 08:17:46;;;;;;;13.30;7.10;;;;;;;30.11;46.56;99491.70;78505;1295;3056479;-59
2023/08/05 08:20:13;;;;;;;15.20;7.10;;;;;;;30.19;46.67;99492.42;79375;1295;3013690;-67
2023/08/05 08:22:39;;;;;;;10.10;6.90;;;;;;;30.27;46.43;99489.80;79436;1295;3011512;-67
2023/08/05 08:25:08;;;;;;;15.90;7.40;;;;;;;30.35;47.21;99492.29;78404;1298;3025875;-69
2023/08/05 08:27:34;;;;;;;12.40;7.30;;;;;;;30.42;47.06;99488.09;79676;1298;3019327;-60
2023/08/05 08:30:01;;;;;;;20.50;7.50;;;;;;;30.50;46.70;99484.37;79445;1300;3013519;-61
2023/08/05 08:32:29;;;;;;;11.80;7.10;;;;;;;30.57;46.44;99484.92;78470;1294;3027928;-61
2023/08/05 08:34:55;;;;;;;13.20;6.90;;;;;;;30.63;46.01;99489.25;79358;1295;3013746;-61
2023/08/05 08:37:21;;;;;;;15.20;7.30;;;;;;;30.73;45.82;99489.10;79571;1294;3011788;-62
2023/08/05 08:39:49;;;;;;;24.80;7.40;;;;;;;30.81;45.65;99492.11;78201;1300;3028983;-64
2023/08/05 08:42:19;;;;;;;23.30;7.90;;;;;;;30.83;44.47;99487.50;79541;1298;3018702;-66
2023/08/05 08:44:48;;;;;;;13.80;6.50;;;;;;;30.89;43.98;99490.61;78795;1296;3011596;-63
2023/08/05 08:47:16;;;;;;;12.00;7.20;;;;;;;30.97;43.82;99493.60;79360;1295;3013669;-59
2023/08/05 08:49:44;;;;;;;18.30;8.00;;;;;;;31.04;43.49;99481.89;79443;1294;3011530;-63
2023/08/05 08:52:14;;;;;;;13.50;7.10;;;;;;;31.10;43.25;99478.70;78695;1298;3054528;-61
2023/08/05 08:54:40;;;;;;;19.20;7.60;;;;;;;31.15;43.12;99479.77;79687;1295;3013023;-70
2023/08/05 08:57:07;;;;;;;19.00;7.30;;;;;;;31.18;42.84;99478.48;79509;1295;3011553;-65
2023/08/05 08:59:35;;;;;;;11.30;6.30;;;;;;;31.19;42.14;99474.04;78300;1295;3068816;-66
2023/08/05 09:02:01;;;;;;;9.20;5.90;;;;;;;31.20;41.88;99472.44;79624;1295;3013851;-70
2023/08/05 09:04:30;;;;;;;22.10;8.00;;;;;;;31.29;42.04;99477.46;79392;1296;3011746;-65
2023/08/05 09:06:57;;;;;;;12.70;6.40;;;;;;;31.35;41.64;99470.48;78323;1300;3054995;-65
2023/08/05 09:09:24;;;;;;;14.50;6.30;;;;;;;31.36;41.30;99470.46;79379;1298;3013784;-66
2023/08/05 09:11:50;;;;;;;12.50;6.60;;;;;;;31.40;41.44;99470.75;79462;1298;3011859;-66
2023/08/05 09:14:18;;;;;;;11.80;5.90;;;;;;;31.47;41.32;99472.33;78863;1298;3028573;-66
2023/08/05 09:16:56;;;;;;;8.50;5.80;;;;;;;31.55;41.39;99474.92;79558;1295;3019220;-64
2023/08/05 09:19:25;;;;;;;9.00;6.00;;;;;;;31.63;41.46;99479.84;78425;1295;3049738;-68
2023/08/05 09:21:55;;;;;;;12.50;6.60;;;;;;;31.71;41.39;99474.69;79776;1296;3013660;-67
2023/08/05 09:24:24;;;;;;;10.30;6.20;;;;;;;31.75;41.17;99474.45;78185;1298;3051911;-69
2023/08/05 09:26:57;;;;;;;12.50;6.50;;;;;;;31.80;41.27;99472.95;79607;1298;3013377;-65
2023/08/05 09:29:26;;;;;;;11.70;5.80;;;;;;;31.92;41.09;99472.40;78383;1297;3051732;-67
2023/08/05 09:32:05;;;;;;;16.90;6.70;;;;;;;32.03;40.71;99469.50;79640;1295;3013290;-68
2023/08/05 09:34:37;;;;;;;19.10;7.00;;;;;;;32.14;40.91;99468.16;78431;1294;3052543;-70
2023/08/05 09:37:05;;;;;;;9.30;6.80;;;;;;;32.26;40.67;99462.42;79416;1295;3011552;-67
2023/08/05 09:39:50;;;;;;;10.50;6.80;;;;;;;32.35;40.97;99455.70;78206;1298;3043350;-68
2023/08/05 09:42:23;;;;;;;11.00;6.30;;;;;;;32.37;41.04;99454.30;78413;1298;3052590;-65
2023/08/05 09:44:54;;;;;;;14.00;6.80;;;;;;;32.45;40.56;99456.39;79703;1295;3011430;-68
2023/08/05 09:47:23;;;;;;;12.10;5.90;;;;;;;32.51;40.29;99454.02;78325;1295;3052048;-65
2023/08/05 09:49:51;;;;;;;13.10;6.50;;;;;;;32.62;39.93;99451.48;79651;1295;3013204;-69
2023/08/05 09:52:23;;;;;;;7.50;5.70;;;;;;;32.75;39.72;99450.95;78943;1297;3013445;-66
2023/08/05 09:54:56;;;;;;;14.60;5.80;;;;;;;32.82;39.39;99447.47;79677;1295;3011906;-70
2023/08/05 09:57:25;;;;;;;11.20;6.30;;;;;;;32.87;39.28;99441.60;78291;1296;3049132;-68
2023/08/05 09:59:53;;;;;;;7.30;6.40;;;;;;;32.93;39.40;99434.70;79750;1298;3013547;-69
2023/08/05 10:02:25;;;;;;;8.60;6.40;;;;;;;33.01;39.45;99430.27;79682;1294;3011648;-68
2023/08/05 10:04:53;;;;;;;13.20;7.00;;;;;;;33.11;39.27;99430.96;78317;1295;3050950;-69
2023/08/05 10:07:22;;;;;;;9.50;6.40;;;;;;;33.23;39.26;99433.86;79682;1294;3011203;-68
2023/08/05 10:09:52;;;;;;;16.80;6.90;;;;;;;33.29;39.19;99437.59;79097;1299;3013552;-69
2023/08/05 10:12:21;;;;;;;11.80;6.80;;;;;;;33.36;38.81;99436.86;79638;1295;3013161;-66
2023/08/05 10:14:49;;;;;;;15.00;8.00;;;;;;;33.36;38.42;99433.69;79070;1298;3011965;-68
2023/08/05 10:17:19;;;;;;;16.30;7.20;;;;;;;33.43;38.68;99437.25;79397;1295;3018774;-70
2023/08/05 10:19:51;;;;;;;11.40;7.20;;;;;;;33.50;38.30;99442.44;78956;1297;3013244;-65
2023/08/05 10:22:24;;;;;;;12.80;7.30;;;;;;;33.54;37.97;99433.10;79265;1295;3013150;-67
2023/08/05 10:24:53;;;;;;;12.70;7.20;;;;;;;33.56;37.99;99423.70;78265;1296;3053302;-64
2023/08/05 10:27:44;;;;;;;11.80;6.90;;;;;;;33.65;38.32;99423.09;79377;1295;3014087;-65
2023/08/05 10:30:13;;;;;;;7.60;6.30;;;;;;;33.75;38.46;99426.08;78243;1295;3053106;-62
2023/08/05 10:32:58;;;;;;;8.30;6.70;;;;;;;33.89;37.85;99423.56;79384;1295;3011841;-63
2023/08/05 10:35:30;;;;;;;9.30;6.50;;;;;;;33.98;37.74;99422.67;78139;1301;3053370;-63
2023/08/05 10:38:19;;;;;;;10.30;6.40;;;;;;;34.05;37.55;99423.04;79429;1298;3011547;-65
2023/08/05 10:40:51;;;;;;;13.20;7.30;;;;;;;34.10;37.33;99423.40;78171;1294;3060930;-62
2023/08/05 10:43:26;;;;;;;11.40;5.80;;;;;;;34.10;36.11;99425.10;79360;1296;3011965;-61
2023/08/05 10:45:54;;;;;;;7.30;6.00;;;;;;;34.13;35.84;99427.64;78169;1300;3048364;-63
2023/08/05 10:48:22;;;;;;;6.50;5.60;;;;;;;34.15;36.26;99422.11;79312;1295;3013255;-59
2023/08/05 10:50:49;;;;;;;8.30;5.80;;;;;;;34.28;36.29;99418.97;79179;1295;3011814;-63
2023/08/05 10:53:17;;;;;;;12.60;6.40;;;;;;;34.34;36.53;99419.14;78311;1298;3053666;-62
2023/08/05 10:55:53;;;;;;;17.10;6.70;;;;;;;34.39;35.78;99422.05;79478;1298;3020646;-62
2023/08/05 10:58:23;;;;;;;17.00;6.90;;;;;;;34.49;35.55;99423.72;78137;1298;3051513;-63
2023/08/05 11:01:00;;;;;;;9.20;6.20;;;;;;;34.54;35.69;99423.39;79672;1295;3012974;-60
2023/08/05 11:03:31;;;;;;;10.50;6.20;;;;;;;34.48;35.60;99423.00;78140;1295;3049624;-61
2023/08/05 11:06:03;;;;;;;13.40;6.60;;;;;;;34.57;35.72;99424.03;79374;1295;3011992;-63
2023/08/05 11:08:32;;;;;;;12.70;6.70;;;;;;;34.64;35.27;99421.40;78243;1296;3050304;-61
2023/08/05 11:11:03;;;;;;;12.60;6.20;;;;;;;34.68;34.52;99421.13;79425;1298;3014695;-64
2023/08/05 11:13:35;;;;;;;13.30;6.10;;;;;;;34.67;34.61;99413.14;78143;1296;3059899;-62
2023/08/05 11:16:09;;;;;;;14.20;6.70;;;;;;;34.73;34.47;99406.88;79323;1295;3012167;-62